Time;durP1;ratioP1;P1;durP2;ratioP2;P2;SDS_P1;SDS_P2;PMS_P1;PMS_P2;Temp;Humidity;BMP_temperature;BMP_pressure;BME280_temperature;BME280_humidity;BME280_pressure;Samples;Min_cycle;Max_cycle;Signal;HPM_P1;HPM_P2
2023/11/02 00:00:46;;;;;;;41.00;8.77;;;13.50;99.90;;;12.91;100.00;97321.59;4203285;28;20033;-75
2023/11/02 00:02:49;;;;;;;33.67;7.75;;;13.50;99.90;;;13.07;100.00;97323.28;4195603;28;20050;-75
2023/11/02 00:04:52;;;;;;;43.08;7.60;;;13.50;99.90;;;13.24;100.00;97339.03;4185970;28;20531;-74
2023/11/02 00:06:55;;;;;;;32.17;7.40;;;13.70;99.90;;;13.24;100.00;97341.69;4185414;28;20028;-75
2023/11/02 00:09:10;;;;;;;30.00;6.07;;;13.70;99.90;;;13.25;100.00;97322.91;4203667;28;20044;-75
2023/11/02 00:11:50;;;;;;;41.05;7.07;;;13.80;99.90;;;13.14;100.00;97331.81;4203421;28;20024;-75
2023/11/02 00:13:51;;;;;;;35.83;5.82;;;13.70;99.90;;;13.14;100.00;97310.66;4193380;28;20107;-75
2023/11/02 00:15:53;;;;;;;41.10;8.50;;;13.80;99.90;;;13.14;100.00;97301.94;4185499;28;20416;-74
2023/11/02 00:17:59;;;;;;;29.20;6.18;;;13.80;99.90;;;13.40;100.00;97290.44;4218678;28;20032;-74
2023/11/02 00:20:08;;;;;;;33.53;7.43;;;13.90;99.90;;;13.31;100.00;97302.56;4203095;28;20439;-74
2023/11/02 00:22:10;;;;;;;38.70;6.90;;;13.90;99.90;;;13.33;100.00;97279.25;4182280;28;20486;-74
2023/11/02 00:24:13;;;;;;;37.05;7.05;;;13.90;99.90;;;13.46;100.00;97309.78;4185477;28;20080;-74
2023/11/02 00:26:19;;;;;;;43.53;7.80;;;13.90;99.90;;;13.41;100.00;97378.59;4185217;28;20037;-74
2023/11/02 00:28:21;;;;;;;48.00;8.18;;;14.00;99.90;;;13.01;100.00;97345.47;4203179;28;20476;-74
2023/11/02 00:30:22;;;;;;;32.55;5.93;;;13.90;99.90;;;11.93;100.00;97337.88;4202954;28;20024;-74
2023/11/02 00:34:26;;;;;;;35.42;6.35;;;12.70;99.90;;;11.32;100.00;97294.84;4202413;28;20392;-74
2023/11/02 00:36:31;;;;;;;41.03;6.93;;;12.40;99.90;;;11.23;100.00;97285.00;4184923;28;20100;-74
2023/11/02 00:38:32;;;;;;;32.42;7.88;;;12.10;99.90;;;11.38;100.00;97293.09;4185211;28;20135;-74
2023/11/02 00:40:32;;;;;;;31.63;7.88;;;12.10;99.90;;;11.41;100.00;97266.22;4185161;28;20029;-74
2023/11/02 00:42:33;;;;;;;29.02;5.40;;;12.00;99.90;;;11.28;100.00;97222.53;4185038;28;20508;-74
2023/11/02 00:44:34;;;;;;;29.00;4.60;;;11.90;99.90;;;11.14;100.00;97265.34;4184949;28;20395;-74
2023/11/02 00:46:35;;;;;;;25.27;5.03;;;11.80;99.90;;;11.05;100.00;97257.84;4202946;28;20033;-74
2023/11/02 00:48:36;;;;;;;28.45;4.68;;;11.70;99.90;;;10.90;100.00;97255.00;4185117;28;20029;-74
2023/11/02 00:51:08;;;;;;;37.53;6.90;;;11.60;99.90;;;10.90;100.00;97233.91;4202484;28;20029;-75
2023/11/02 00:53:08;;;;;;;40.20;6.90;;;11.60;99.90;;;10.97;100.00;97223.19;4187587;28;20424;-74
2023/11/02 00:55:35;;;;;;;38.10;8.52;;;11.60;99.90;;;11.22;100.00;97247.25;4184927;28;20025;-74
2023/11/02 00:57:39;;;;;;;43.78;6.50;;;11.70;99.90;;;11.26;100.00;97258.91;4201390;28;20158;-74
2023/11/02 00:59:44;;;;;;;30.58;5.22;;;11.80;99.90;;;11.34;100.00;97234.75;4185083;28;20427;-74
2023/11/02 01:01:46;;;;;;;27.45;5.72;;;11.90;99.90;;;11.45;100.00;97210.06;4185104;28;20029;-74
2023/11/02 01:03:53;;;;;;;23.35;4.28;;;12.00;99.90;;;11.34;100.00;97212.84;4202560;28;20403;-75
2023/11/02 01:05:55;;;;;;;27.80;5.75;;;12.00;99.90;;;11.42;100.00;97251.97;4185130;28;20065;-75
2023/11/02 01:07:55;;;;;;;33.03;6.45;;;12.00;99.90;;;11.46;100.00;97195.81;4167986;28;20128;-74
2023/11/02 01:10:00;;;;;;;33.30;7.40;;;12.10;99.90;;;11.54;100.00;97184.00;4202427;28;20430;-75
2023/11/02 01:12:01;;;;;;;38.78;7.20;;;12.10;99.90;;;11.64;100.00;97208.69;4184172;28;20029;-74
2023/11/02 01:14:22;;;;;;;37.13;8.10;;;12.20;99.90;;;11.54;100.00;97213.84;4202371;28;20106;-75
2023/11/02 01:16:26;;;;;;;41.60;8.07;;;12.20;99.90;;;11.59;100.00;97210.47;4202205;28;20063;-75
2023/11/02 01:18:27;;;;;;;45.78;6.95;;;12.20;99.90;;;11.80;100.00;97195.66;4184974;28;20536;-74
2023/11/02 01:20:43;;;;;;;34.67;5.90;;;12.40;99.90;;;11.92;100.00;97220.84;4185271;28;20044;-74
2023/11/02 01:23:03;;;;;;;34.15;6.25;;;12.50;99.90;;;12.16;100.00;97206.28;4206244;28;20529;-74
2023/11/02 01:25:11;;;;;;;36.80;6.18;;;12.60;99.90;;;12.10;100.00;97174.78;4185872;28;20039;-74
2023/11/02 01:27:23;;;;;;;27.75;6.03;;;12.70;99.90;;;12.13;100.00;97183.00;4185067;28;20025;-75
2023/11/02 01:29:27;;;;;;;17.88;4.03;;;12.70;99.90;;;12.07;100.00;97184.00;4168198;28;20030;-74
2023/11/02 01:31:34;;;;;;;32.83;7.10;;;12.70;99.90;;;12.11;100.00;97193.03;4184404;28;20029;-74
2023/11/02 01:33:37;;;;;;;29.00;4.88;;;12.80;99.90;;;12.12;100.00;97205.22;4185017;28;20096;-74
2023/11/02 01:35:44;;;;;;;27.00;5.87;;;12.80;99.90;;;12.20;100.00;97185.44;4183350;28;20115;-74
2023/11/02 01:37:47;;;;;;;31.63;5.25;;;12.80;99.90;;;12.18;100.00;97177.75;4201039;28;20619;-74
2023/11/02 01:53:41;;;;;;;26.95;5.80;;;12.80;99.90;;;12.04;100.00;97236.53;4250002;27;20374;-76
2023/11/02 01:56:13;;;;;;;29.15;6.72;;;12.70;99.90;;;11.99;100.00;97250.50;4222203;28;20442;-76
2023/11/02 01:58:39;;;;;;;36.60;6.88;;;12.70;99.90;;;11.98;100.00;97234.91;4232507;28;20513;-75
2023/11/02 02:00:59;;;;;;;32.28;6.28;;;12.70;99.90;;;12.03;100.00;97238.41;4221533;28;20085;-75
2023/11/02 02:05:34;;;;;;;32.92;7.68;;;12.80;99.90;;;12.04;100.00;97271.69;4206035;28;20031;-75
2023/11/02 02:07:52;;;;;;;26.02;6.50;;;12.70;99.90;;;11.91;100.00;97250.97;4224855;28;20016;-76
2023/11/02 02:10:07;;;;;;;44.85;7.57;;;12.60;99.90;;;11.90;100.00;97245.94;4231676;28;20020;-76
2023/11/02 02:12:19;;;;;;;28.17;5.20;;;12.50;99.90;;;11.83;100.00;97240.84;4214566;28;20086;-76
2023/11/02 02:15:10;;;;;;;22.80;5.78;;;12.40;99.90;;;11.97;100.00;97255.25;4210169;28;20039;-76
2023/11/02 02:17:32;;;;;;;34.58;6.75;;;12.50;99.90;;;12.00;100.00;97246.84;4180773;28;20821;-75
2023/11/02 02:19:42;;;;;;;29.08;5.80;;;12.60;99.90;;;11.93;100.00;97248.06;4232499;28;20083;-76
2023/11/02 02:21:59;;;;;;;38.78;6.43;;;12.60;99.90;;;11.93;100.00;97246.22;4232608;28;20363;-75
2023/11/02 02:24:09;;;;;;;29.08;5.85;;;12.60;99.90;;;12.16;100.00;97245.09;4232639;28;20098;-76
2023/11/02 02:27:06;;;;;;;27.45;6.15;;;12.70;99.90;;;12.12;100.00;97246.69;4232298;28;20114;-76
2023/11/02 02:29:45;;;;;;;28.08;6.25;;;12.70;99.90;;;12.13;100.00;97249.06;4232215;28;20066;-76
2023/11/02 02:32:20;;;;;;;26.70;6.05;;;12.70;99.90;;;12.06;100.00;97269.63;4232561;28;20491;-76
2023/11/02 02:35:00;;;;;;;34.63;6.63;;;12.70;99.90;;;11.87;100.00;97249.06;4214357;28;20031;-76
2023/11/02 02:37:16;;;;;;;34.60;9.02;;;12.60;99.90;;;11.80;100.00;97262.47;4209786;28;20058;-75
2023/11/02 02:39:25;;;;;;;37.08;6.90;;;12.50;99.90;;;11.68;100.00;97267.03;4219451;28;20020;-76
2023/11/02 02:41:31;;;;;;;33.17;7.05;;;12.50;99.90;;;11.88;100.00;97274.44;4213994;28;20371;-76
2023/11/02 02:43:35;;;;;;;30.63;6.85;;;12.50;99.90;;;11.87;100.00;97268.34;4210021;28;20079;-76
2023/11/02 02:45:38;;;;;;;30.60;7.43;;;12.50;99.90;;;11.84;100.00;97255.66;4201967;28;20021;-76
2023/11/02 02:47:41;;;;;;;40.53;8.23;;;12.50;99.90;;;11.70;100.00;97230.69;4242209;28;20062;-76
2023/11/02 02:49:51;;;;;;;35.90;6.68;;;12.50;99.90;;;11.76;100.00;97260.56;4214207;28;20020;-76
2023/11/02 02:51:54;;;;;;;34.72;7.25;;;12.40;99.90;;;11.83;100.00;97248.75;4237893;28;20039;-76
2023/11/02 02:54:03;;;;;;;35.97;8.18;;;12.50;99.90;;;11.84;100.00;97271.50;4204167;28;20041;-76
2023/11/02 02:56:09;;;;;;;33.08;6.35;;;12.50;99.90;;;11.83;100.00;97261.16;4195797;28;20031;-76
2023/11/02 02:58:14;;;;;;;32.90;6.65;;;12.50;99.90;;;11.83;100.00;97292.84;4199886;28;20036;-76
2023/11/02 03:00:16;;;;;;;32.25;7.65;;;12.50;99.90;;;11.75;100.00;97229.94;4193402;28;20029;-76
2023/11/02 03:02:21;;;;;;;42.42;7.32;;;12.50;99.90;;;11.68;100.00;97285.53;4193824;28;20033;-76
2023/11/02 16:15:29;;;;;;;14.18;2.78;;;10.50;99.90;;;9.40;100.00;98243.19;4233071;27;20376;-70
2023/11/02 16:17:30;;;;;;;9.65;1.80;;;10.20;99.90;;;9.31;100.00;98237.38;4215972;28;20031;-70
2023/11/02 16:19:32;;;;;;;15.35;3.70;;;10.10;99.90;;;9.29;100.00;98234.13;4214758;28;20028;-71
2023/11/02 16:21:33;;;;;;;9.88;2.88;;;10.10;99.90;;;9.21;100.00;98241.44;4215635;28;20016;-71
2023/11/02 16:23:33;;;;;;;5.97;1.60;;;10.00;99.90;;;9.18;100.00;98220.81;4215819;28;20032;-71
2023/11/02 16:25:34;;;;;;;7.60;2.63;;;10.00;99.90;;;9.16;100.00;98226.28;4214727;28;20408;-71
2023/11/02 16:27:35;;;;;;;9.40;2.20;;;9.90;99.90;;;9.13;100.00;98226.72;4216156;28;20024;-71
2023/11/02 16:29:36;;;;;;;5.60;3.00;;;9.90;99.90;;;9.09;100.00;98229.94;4215991;28;20057;-71
2023/11/02 16:31:37;;;;;;;9.32;3.22;;;9.80;99.90;;;9.05;100.00;98245.31;4215001;28;20032;-71
2023/11/02 16:33:38;;;;;;;10.32;2.45;;;9.80;99.90;;;8.98;100.00;98249.00;4215758;28;20032;-71
2023/11/02 16:35:41;;;;;;;11.77;2.95;;;9.70;99.90;;;8.94;100.00;98274.06;4215974;28;20043;-71
2023/11/02 16:37:42;;;;;;;9.45;2.97;;;9.70;99.90;;;8.92;100.00;98308.47;4216093;28;20395;-71
2023/11/02 16:39:43;;;;;;;10.35;2.88;;;9.70;99.90;;;8.88;100.00;98291.47;4215702;28;20037;-71
2023/11/02 16:41:47;;;;;;;9.32;2.58;;;9.70;99.90;;;8.76;100.00;98288.69;4215676;28;20025;-71
2023/11/02 16:43:48;;;;;;;;;;;9.60;99.90;;;8.69;100.00;98300.22;4216230;28;20032;-71
2023/11/02 16:45:50;;;;;;;8.10;2.10;;;9.50;99.90;;;8.62;100.00;98289.72;4215923;28;20431;-71
2023/11/02 16:47:51;;;;;;;8.57;2.15;;;9.40;99.90;;;8.56;100.00;98287.88;4197396;28;20029;-71
2023/11/02 16:49:52;;;;;;;8.93;2.30;;;9.30;99.90;;;8.56;100.00;98297.59;4212639;28;20044;-71
2023/11/02 16:51:52;;;;;;;11.57;4.13;;;9.30;99.90;;;8.53;100.00;98301.44;4215723;28;20028;-71
2023/11/02 16:53:53;;;;;;;13.00;3.25;;;9.20;99.90;;;8.53;100.00;98301.44;4215629;28;20024;-71
2023/11/02 16:55:54;;;;;;;8.90;3.08;;;9.20;99.90;;;8.51;100.00;98306.06;4215742;28;20024;-71
2023/11/02 16:57:55;;;;;;;11.68;3.80;;;9.20;99.90;;;8.47;100.00;98299.59;4215649;28;20070;-71
2023/11/02 16:59:56;;;;;;;14.30;5.45;;;9.10;99.90;;;8.42;100.00;98306.47;4215561;28;20437;-71
2023/11/02 17:01:57;;;;;;;11.95;4.20;;;9.10;99.90;;;8.39;100.00;98296.38;4214226;28;20031;-71
2023/11/02 17:03:58;;;;;;;11.60;3.70;;;9.10;99.90;;;8.34;100.00;98296.97;4215121;28;20032;-71
2023/11/02 17:05:58;;;;;;;16.30;4.00;;;9.00;99.90;;;8.33;100.00;98303.25;4213976;28;20025;-71
2023/11/02 17:08:01;;;;;;;10.18;2.95;;;9.00;99.90;;;8.28;100.00;98303.03;4215272;28;20588;-71
2023/11/02 17:10:03;;;;;;;7.65;2.70;;;8.90;99.90;;;8.20;100.00;98309.25;4215602;28;20505;-71
2023/11/02 17:12:06;;;;;;;7.10;3.30;;;8.90;99.90;;;8.19;100.00;98318.13;4215468;28;20028;-71
2023/11/02 17:14:07;;;;;;;11.07;4.37;;;8.90;99.90;;;8.13;100.00;98328.63;4214870;28;20040;-71
2023/11/02 17:16:11;;;;;;;10.02;4.40;;;8.80;99.90;;;8.07;100.00;98321.53;4204467;28;20042;-71
2023/11/02 17:18:11;;;;;;;15.43;4.88;;;8.80;99.90;;;8.04;100.00;98337.69;4202867;28;20579;-71
2023/11/02 17:20:13;;;;;;;12.73;3.47;;;8.70;99.90;;;8.00;100.00;98339.09;4202630;28;20036;-71
2023/11/02 17:22:14;;;;;;;7.68;3.30;;;8.70;99.90;;;8.04;100.00;98350.81;4204179;28;20564;-71
2023/11/02 17:24:15;;;;;;;8.60;3.28;;;8.70;99.90;;;8.00;100.00;98358.31;4203791;28;20025;-71
2023/11/02 17:26:16;;;;;;;8.65;2.75;;;8.70;99.90;;;7.97;100.00;98360.50;4202915;28;20032;-71
2023/11/02 17:28:17;;;;;;;7.47;2.80;;;8.60;99.90;;;7.96;100.00;98364.94;4202682;28;20028;-71
2023/11/02 17:30:19;;;;;;;10.57;3.05;;;8.70;99.90;;;7.98;100.00;98369.97;4203870;28;20028;-71
2023/11/02 17:32:20;;;;;;;9.52;3.10;;;8.60;99.90;;;7.97;100.00;98368.38;4203623;28;20033;-71
2023/11/02 17:34:21;;;;;;;10.50;4.35;;;8.70;99.90;;;7.90;100.00;98357.84;4203851;28;20035;-71
2023/11/02 17:36:22;;;;;;;13.02;4.13;;;8.60;99.90;;;7.87;100.00;98370.56;4202448;28;20028;-71
2023/11/02 17:38:23;;;;;;;19.70;7.20;;;8.60;99.90;;;7.86;100.00;98374.19;4203785;28;20051;-71
2023/11/02 17:40:24;;;;;;;13.27;5.05;;;8.50;99.90;;;7.82;100.00;98364.06;4203555;28;20032;-71
2023/11/02 17:42:25;;;;;;;8.65;4.35;;;8.50;99.90;;;7.84;100.00;98369.13;4203950;28;20031;-71
2023/11/02 17:44:26;;;;;;;20.48;7.78;;;8.50;99.90;;;7.80;100.00;98373.16;4203632;28;20024;-71
2023/11/02 17:46:27;;;;;;;13.55;4.72;;;8.50;99.90;;;7.82;100.00;98375.59;4203244;28;20552;-71
2023/11/02 17:48:27;;;;;;;9.10;2.85;;;8.50;99.90;;;7.77;100.00;98378.78;4202205;28;20555;-71
2023/11/02 17:50:28;;;;;;;11.32;4.88;;;8.50;99.90;;;7.83;100.00;98375.38;4202451;28;20507;-71
2023/11/02 17:52:29;;;;;;;9.07;4.95;;;8.50;99.90;;;7.91;100.00;98377.03;4202360;28;20075;-71
2023/11/02 17:54:33;;;;;;;7.65;3.88;;;8.60;99.90;;;7.98;100.00;98377.84;4203439;28;20024;-71
2023/11/02 17:56:41;;;;;;;6.80;2.70;;;8.60;99.90;;;7.91;100.00;98382.28;4203568;28;20028;-71
2023/11/02 17:58:42;;;;;;;2.90;1.80;;;8.60;99.90;;;7.91;100.00;98384.91;4202372;28;20056;-71
2023/11/02 18:00:43;;;;;;;4.30;2.47;;;8.60;99.90;;;7.90;100.00;98389.34;4203192;28;20077;-71
2023/11/02 18:02:44;;;;;;;5.82;2.25;;;8.60;99.90;;;7.98;100.00;98393.59;4202221;28;20040;-71
2023/11/02 18:04:48;;;;;;;7.90;2.75;;;8.70;99.90;;;8.08;100.00;98384.38;4202965;28;20037;-71
2023/11/02 18:06:49;;;;;;;7.07;3.22;;;8.70;99.90;;;8.15;100.00;98395.69;4202291;28;20070;-71
2023/11/02 18:08:50;;;;;;;5.95;2.80;;;8.80;99.90;;;8.18;100.00;98399.75;4203192;28;20483;-71
2023/11/02 18:10:51;;;;;;;10.57;3.13;;;8.80;99.90;;;8.16;100.00;98407.00;4203142;28;20097;-71
2023/11/02 18:12:52;;;;;;;4.75;1.88;;;8.80;99.90;;;8.17;100.00;98409.44;4203253;28;20391;-71
2023/11/02 18:14:53;;;;;;;7.05;2.10;;;8.80;99.90;;;8.10;100.00;98400.72;4202578;28;20063;-71
2023/11/02 18:16:54;;;;;;;7.95;3.10;;;8.70;99.90;;;8.04;100.00;98413.81;4185301;28;20551;-71
2023/11/02 18:18:55;;;;;;;5.78;2.67;;;8.70;99.90;;;8.01;100.00;98419.47;4203013;28;20020;-71
2023/11/02 18:20:56;;;;;;;6.43;3.17;;;8.70;99.90;;;8.00;100.00;98423.94;4202942;28;20028;-71
2023/11/02 18:22:57;;;;;;;6.28;2.55;;;8.70;99.90;;;8.02;100.00;98415.84;4203119;28;20437;-71
2023/11/02 18:24:58;;;;;;;17.15;4.30;;;8.70;99.90;;;7.99;100.00;98417.06;4202909;28;20036;-71
2023/11/02 18:26:58;;;;;;;7.68;3.13;;;8.70;99.90;;;7.95;100.00;98415.00;4184043;28;20043;-71
2023/11/02 18:29:01;;;;;;;7.30;3.08;;;8.60;99.90;;;7.90;100.00;98420.03;4201901;28;20506;-71
2023/11/02 18:31:03;;;;;;;12.07;2.97;;;8.60;99.90;;;7.89;100.00;98411.34;4201541;28;20042;-71
2023/11/02 18:33:04;;;;;;;6.65;3.53;;;8.60;99.90;;;7.92;100.00;98418.00;4201704;28;20024;-71
2023/11/02 18:35:06;;;;;;;8.63;2.40;;;8.60;99.90;;;7.95;100.00;98415.81;4201611;28;20031;-71
2023/11/02 18:37:06;;;;;;;10.27;3.10;;;8.70;99.90;;;7.99;100.00;98410.97;4201833;28;20032;-71
2023/11/02 18:39:09;;;;;;;8.63;3.85;;;8.70;99.90;;;8.02;100.00;98414.03;4202837;28;20031;-71
2023/11/02 18:41:11;;;;;;;5.90;2.35;;;8.70;99.90;;;8.02;100.00;98423.72;4201560;28;20024;-71
2023/11/02 18:43:12;;;;;;;8.20;3.55;;;8.70;99.90;;;8.08;100.00;98439.50;4202543;28;20544;-71
2023/11/02 18:45:14;;;;;;;6.70;2.90;;;8.80;99.90;;;8.10;100.00;98449.78;4202506;28;20033;-71
2023/11/02 18:47:15;;;;;;;8.60;4.05;;;8.70;99.90;;;8.08;100.00;98447.38;4202862;28;20146;-71
2023/11/02 18:49:16;;;;;;;5.72;3.75;;;8.80;99.90;;;8.07;100.00;98444.94;4202588;28;20497;-71
2023/11/02 18:51:18;;;;;;;7.13;4.95;;;8.80;99.90;;;8.03;100.00;98447.16;4202330;28;20055;-71
2023/11/02 18:53:19;;;;;;;8.35;4.50;;;8.70;99.90;;;8.00;100.00;98452.00;4201345;28;20024;-71
2023/11/02 18:55:20;;;;;;;6.40;3.25;;;8.70;99.90;;;7.87;100.00;98439.59;4202552;28;20025;-71
2023/11/02 18:57:21;;;;;;;7.38;2.58;;;8.60;99.90;;;7.88;100.00;98453.56;4202584;28;20414;-71
2023/11/02 18:59:22;;;;;;;8.40;3.10;;;8.50;99.90;;;7.78;100.00;98446.03;4201031;28;20107;-71
2023/11/02 19:01:23;;;;;;;5.93;2.22;;;8.50;99.90;;;7.77;100.00;98439.16;4201473;28;20021;-71
2023/11/02 19:03:25;;;;;;;7.82;3.33;;;8.40;99.90;;;7.65;100.00;98441.50;4201403;28;20021;-71
2023/11/02 19:05:26;;;;;;;6.80;2.55;;;8.40;99.90;;;7.54;100.00;98434.19;4202193;28;20028;-71
2023/11/02 19:07:26;;;;;;;5.47;2.40;;;8.30;99.90;;;7.56;100.00;98436.59;4202183;28;20024;-71
2023/11/02 19:09:27;;;;;;;9.32;3.10;;;8.30;99.90;;;7.52;100.00;98430.13;4202363;28;20483;-71
2023/11/02 19:11:28;;;;;;;12.82;4.97;;;8.20;99.90;;;7.50;100.00;98429.50;4201143;28;20106;-71
2023/11/02 19:13:30;;;;;;;10.95;4.55;;;8.20;99.90;;;7.46;100.00;98421.22;4201562;28;20487;-71
2023/11/02 19:15:32;;;;;;;9.30;3.75;;;8.20;99.90;;;7.41;100.00;98431.47;4201034;28;20029;-71
2023/11/02 19:17:35;;;;;;;8.48;3.85;;;8.10;99.90;;;7.34;100.00;98425.38;4188945;28;20063;-71
2023/11/02 19:19:37;;;;;;;11.02;3.65;;;8.00;99.90;;;7.25;100.00;98405.56;4202163;28;20034;-71
2023/11/02 19:21:44;;;;;;;7.10;3.10;;;7.90;99.90;;;7.21;100.00;98417.41;4200953;28;20086;-71
2023/11/02 19:23:45;;;;;;;4.85;2.80;;;7.90;99.90;;;7.10;100.00;98413.53;4201977;28;20036;-71
2023/11/02 19:25:48;;;;;;;9.00;4.03;;;7.90;99.90;;;7.06;100.00;98414.91;4200993;28;20415;-71
2023/11/02 19:27:49;;;;;;;13.13;4.57;;;7.80;99.90;;;7.01;100.00;98421.72;4201877;28;20467;-71
2023/11/02 19:29:49;;;;;;;5.70;3.17;;;7.80;99.90;;;6.97;100.00;98437.00;4202040;28;20050;-71
2023/11/02 19:31:51;;;;;;;6.03;2.75;;;7.70;99.90;;;6.90;100.00;98438.75;4201916;28;20021;-71
2023/11/02 19:33:52;;;;;;;6.80;3.78;;;7.60;99.90;;;6.84;100.00;98439.50;4200675;28;20039;-71
2023/11/02 19:35:53;;;;;;;8.77;3.90;;;7.60;99.90;;;6.84;100.00;98446.56;4201869;28;20033;-71
2023/11/02 19:37:54;;;;;;;10.77;4.35;;;7.50;99.90;;;6.86;100.00;98452.44;4201814;28;20032;-71
2023/11/02 19:39:55;;;;;;;9.90;4.60;;;7.50;99.90;;;6.83;100.00;98456.25;4201803;28;20020;-71
2023/11/02 19:41:56;;;;;;;10.43;4.13;;;7.50;99.90;;;6.84;100.00;98457.06;4200567;28;20060;-71
2023/11/02 19:43:57;;;;;;;8.32;3.63;;;7.60;99.90;;;6.79;100.00;98462.84;4200755;28;20027;-71
2023/11/02 19:45:58;;;;;;;6.68;3.10;;;7.50;99.90;;;6.81;100.00;98462.66;4202197;28;20033;-71
2023/11/02 19:47:59;;;;;;;11.05;3.15;;;7.50;99.90;;;6.79;100.00;98465.47;4201761;28;20027;-71
2023/11/02 19:50:00;;;;;;;9.40;3.08;;;7.50;99.90;;;6.83;100.00;98471.16;4200699;28;20369;-71
2023/11/02 19:52:01;;;;;;;9.13;3.47;;;7.50;99.90;;;6.78;100.00;98463.84;4201977;28;20027;-71
2023/11/02 19:54:03;;;;;;;6.15;2.63;;;7.50;99.90;;;6.79;100.00;98460.22;4200763;28;20527;-71
2023/11/02 19:56:05;;;;;;;7.68;3.92;;;7.50;99.90;;;6.80;100.00;98461.03;4201715;28;20029;-71
2023/11/02 19:58:05;;;;;;;13.15;3.72;;;7.50;99.90;;;6.78;100.00;98468.28;4183710;28;20530;-71
2023/11/02 20:00:11;;;;;;;9.10;3.40;;;7.50;99.90;;;6.73;100.00;98470.63;4192433;28;20020;-71
2023/11/02 20:02:12;;;;;;;10.00;3.30;;;7.50;99.90;;;6.74;100.00;98467.84;4200453;28;20032;-71
2023/11/02 20:04:13;;;;;;;14.20;7.57;;;7.40;99.90;;;6.70;100.00;98471.81;4201564;28;20507;-72
2023/11/02 20:06:14;;;;;;;25.13;13.25;;;7.40;99.90;;;6.67;100.00;98467.78;4201533;28;20040;-72
2023/11/02 20:08:15;;;;;;;12.02;5.82;;;7.40;99.90;;;6.64;100.00;98462.09;4201794;28;20483;-71
2023/11/02 20:10:16;;;;;;;16.52;7.03;;;7.40;99.90;;;6.61;100.00;98465.09;4201862;28;20025;-71
2023/11/02 20:12:17;;;;;;;14.50;7.50;;;7.40;99.90;;;6.60;100.00;98459.03;4201664;28;20028;-71
2023/11/02 20:14:18;;;;;;;12.00;5.90;;;7.40;99.90;;;6.58;100.00;98463.66;4199973;28;20127;-71
2023/11/02 20:16:19;;;;;;;6.20;2.90;;;7.30;99.90;;;6.57;100.00;98467.25;4217107;28;20040;-71
2023/11/02 20:18:19;;;;;;;9.35;4.20;;;7.30;99.90;;;6.55;100.00;98458.78;4201664;28;20445;-71
2023/11/02 20:20:20;;;;;;;10.30;4.53;;;7.20;99.90;;;6.57;100.00;98466.47;4201414;28;20029;-71
2023/11/02 20:22:21;;;;;;;8.65;3.17;;;7.30;99.90;;;6.56;100.00;98470.06;4200558;28;20066;-71
2023/11/02 20:24:23;;;;;;;8.90;4.30;;;7.30;99.90;;;6.54;100.00;98470.25;4201553;28;20023;-71
2023/11/02 20:26:24;;;;;;;6.78;2.80;;;7.30;99.90;;;6.50;100.00;98461.16;4201627;28;20028;-71
2023/11/02 20:28:25;;;;;;;12.70;6.43;;;7.30;99.90;;;6.51;100.00;98464.59;4201539;28;20021;-71
2023/11/02 20:30:26;;;;;;;10.98;4.53;;;7.30;99.90;;;6.56;100.00;98473.50;4200185;28;20025;-71
2023/11/02 20:32:26;;;;;;;10.30;2.88;;;7.30;99.90;;;6.51;100.00;98456.72;4201573;28;20050;-71
2023/11/02 20:34:27;;;;;;;7.65;2.92;;;7.30;99.90;;;6.50;100.00;98457.72;4200375;28;20041;-71
2023/11/02 20:36:29;;;;;;;8.50;3.45;;;7.20;99.90;;;6.47;100.00;98460.72;4201269;28;20028;-71
2023/11/02 20:38:31;;;;;;;11.35;5.88;;;7.30;99.90;;;6.46;100.00;98461.69;4201531;28;20089;-71
2023/11/02 20:40:33;;;;;;;9.90;4.80;;;7.20;99.90;;;6.38;100.00;98454.78;4201558;28;20028;-71
2023/11/02 20:42:34;;;;;;;11.95;4.88;;;7.20;99.90;;;6.36;100.00;98454.13;4201359;28;20032;-71
2023/11/02 20:44:35;;;;;;;15.73;5.07;;;7.20;99.90;;;6.34;100.00;98450.91;4201316;28;20025;-71
2023/11/02 20:46:40;;;;;;;12.55;5.85;;;7.10;99.90;;;6.35;100.00;98443.88;4201240;28;20028;-71
2023/11/02 20:48:41;;;;;;;13.98;9.73;;;7.20;99.90;;;6.31;100.00;98435.56;4200255;28;20450;-71
2023/11/02 20:50:43;;;;;;;19.88;9.75;;;7.10;99.90;;;6.35;100.00;98446.47;4201130;28;20021;-71
2023/11/02 20:52:44;;;;;;;24.15;11.93;;;7.10;99.90;;;6.34;100.00;98450.91;4204548;28;20048;-71
2023/11/02 20:54:44;;;;;;;19.55;8.70;;;7.10;99.90;;;6.32;100.00;98447.66;4203061;28;20083;-71
2023/11/02 20:56:45;;;;;;;15.35;7.25;;;7.10;99.90;;;6.31;100.00;98443.41;4220300;28;20024;-71
2023/11/02 20:58:46;;;;;;;16.13;6.65;;;7.10;99.90;;;6.33;100.00;98451.88;4204487;28;20033;-71
2023/11/02 21:00:48;;;;;;;20.52;9.18;;;7.10;99.90;;;6.35;100.00;98446.47;4204430;28;20028;-71
2023/11/02 21:02:49;;;;;;;17.92;8.20;;;7.10;99.90;;;6.29;100.00;98437.56;4204145;28;20040;-71
2023/11/02 21:04:50;;;;;;;18.98;7.72;;;7.10;99.90;;;6.37;100.00;98447.09;4204117;28;20106;-71
2023/11/02 21:06:51;;;;;;;21.77;9.88;;;7.10;99.90;;;6.31;100.00;98453.88;4204398;28;20170;-71
2023/11/02 21:08:52;;;;;;;19.92;6.80;;;7.10;99.90;;;6.31;100.00;98453.06;4204247;28;20025;-71
2023/11/02 21:10:53;;;;;;;12.77;4.30;;;7.00;99.90;;;6.25;100.00;98451.19;4221048;28;20024;-71
2023/11/02 21:12:54;;;;;;;11.38;3.80;;;7.00;99.90;;;6.21;100.00;98456.00;4191992;28;20017;-70
2023/11/02 21:14:55;;;;;;;9.00;3.80;;;7.00;99.90;;;6.24;100.00;98455.63;4203604;28;20161;-70
2023/11/02 21:16:55;;;;;;;8.75;3.28;;;7.00;99.90;;;6.23;100.00;98454.00;4203006;28;20146;-70
2023/11/02 21:18:56;;;;;;;10.00;3.40;;;7.00;99.90;;;6.27;100.00;98451.84;4203997;28;20039;-70
2023/11/02 21:20:57;;;;;;;6.28;3.30;;;7.00;99.90;;;6.23;100.00;98451.38;4203800;28;20032;-70
2023/11/02 21:22:58;;;;;;;9.25;4.05;;;7.00;99.90;;;6.22;100.00;98454.19;4203018;28;20471;-70
2023/11/02 21:24:59;;;;;;;9.23;4.18;;;6.90;99.90;;;6.20;100.00;98443.91;4203796;28;20033;-70
2023/11/02 21:27:00;;;;;;;7.55;2.90;;;6.90;99.90;;;6.18;100.00;98445.91;4203894;28;20031;-70
2023/11/02 21:29:01;;;;;;;7.15;2.70;;;6.90;99.90;;;6.21;100.00;98445.53;4201504;28;20074;-70
2023/11/02 21:31:03;;;;;;;7.25;2.67;;;6.90;99.90;;;6.18;100.00;98445.91;4202116;28;20100;-70
2023/11/02 21:33:04;;;;;;;8.73;3.03;;;6.90;99.90;;;6.21;100.00;98445.53;4203378;28;20021;-70
2023/11/02 21:35:05;;;;;;;9.55;3.17;;;6.90;99.90;;;6.28;100.00;98440.34;4202511;28;20054;-70
2023/11/02 21:37:08;;;;;;;9.88;3.10;;;6.90;99.90;;;6.30;100.00;98448.84;4202251;28;20574;-70
2023/11/02 21:39:10;;;;;;;9.65;2.63;;;7.00;99.90;;;6.35;100.00;98442.06;4185676;28;20074;-70
2023/11/02 21:41:11;;;;;;;12.18;3.25;;;7.00;99.90;;;6.32;100.00;98437.19;4197740;28;20598;-70
2023/11/02 21:43:12;;;;;;;9.50;3.35;;;7.00;99.90;;;6.35;100.00;98455.16;4203478;28;20020;-70
2023/11/02 21:45:13;;;;;;;13.27;3.88;;;7.00;99.90;;;6.34;100.00;98445.66;4201931;28;20021;-70
2023/11/02 21:47:14;;;;;;;8.70;3.10;;;7.00;99.90;;;6.36;100.00;98448.91;4203388;28;20522;-70
2023/11/02 21:49:14;;;;;;;8.93;2.70;;;7.00;99.90;;;6.41;100.00;98448.34;4202617;28;20029;-69
2023/11/02 21:51:15;;;;;;;4.88;2.50;;;7.00;99.90;;;6.42;100.00;98437.69;4202752;28;20027;-69
2023/11/02 21:53:16;;;;;;;8.80;2.80;;;7.10;99.90;;;6.47;100.00;98445.00;4201961;28;20024;-70
2023/11/02 21:55:17;;;;;;;5.57;2.60;;;7.10;99.90;;;6.46;100.00;98432.91;4202945;28;20055;-70
2023/11/02 21:57:20;;;;;;;10.02;2.20;;;7.10;99.90;;;6.48;100.00;98426.47;4203141;28;20036;-70
2023/11/02 21:59:20;;;;;;;11.52;2.38;;;7.10;99.90;;;6.49;100.00;98417.63;4201433;28;20048;-70
2023/11/02 22:01:22;;;;;;;9.00;2.72;;;7.20;99.90;;;6.49;100.00;98412.38;4202015;28;20572;-70
2023/11/02 22:03:23;;;;;;;7.97;3.55;;;7.20;99.90;;;6.46;100.00;98402.28;4208638;28;20150;-71
2023/11/02 22:05:24;;;;;;;9.02;4.18;;;7.20;99.90;;;6.48;100.00;98405.50;4201432;28;20029;-70
2023/11/02 22:07:25;;;;;;;9.85;4.55;;;7.20;99.90;;;6.49;100.00;98406.34;4202968;28;20025;-70
2023/11/02 22:09:25;;;;;;;12.30;6.45;;;7.20;99.90;;;6.45;100.00;98405.88;4201938;28;20021;-70